Time;durP1;ratioP1;P1;durP2;ratioP2;P2;SDS_P1;SDS_P2;PMS_P1;PMS_P2;Temp;Humidity;BMP_temperature;BMP_pressure;BME280_temperature;BME280_humidity;BME280_pressure;Samples;Min_cycle;Max_cycle;Signal;HPM_P1;HPM_P2
2024/04/14 00:00:54;;;;;;;12.70;5.20;;;;;;;17.46;66.86;99510.53;5418001;26;20018;-46
2024/04/14 00:03:19;;;;;;;10.95;7.40;;;;;;;17.51;66.33;99508.84;5416180;26;20442;-46
2024/04/14 00:05:45;;;;;;;7.15;5.43;;;;;;;17.59;66.26;99513.03;5386629;26;20000;-46
2024/04/14 00:08:11;;;;;;;10.20;5.13;;;;;;;17.87;66.50;99511.63;5417976;26;20003;-47
2024/04/14 00:10:37;;;;;;;11.05;4.00;;;;;;;17.90;65.21;99503.19;5417733;26;20053;-46
2024/04/14 00:13:02;;;;;;;13.02;5.32;;;;;;;17.82;64.64;99500.84;5416126;26;20006;-46
2024/04/14 00:15:28;;;;;;;14.88;5.35;;;;;;;17.67;65.01;99507.41;5417809;26;20003;-46
2024/04/14 00:17:54;;;;;;;8.50;4.60;;;;;;;17.48;65.05;99503.97;5417704;26;20000;-46
2024/04/14 00:20:19;;;;;;;13.02;8.43;;;;;;;17.37;65.91;99502.09;5417688;26;20342;-46
2024/04/14 00:22:45;;;;;;;9.73;5.68;;;;;;;17.40;66.44;99503.47;5417642;26;20376;-46
2024/04/14 00:25:12;;;;;;;13.77;8.63;;;;;;;17.34;67.16;99500.72;5417635;26;20361;-46
2024/04/14 00:27:37;;;;;;;10.45;5.45;;;;;;;17.38;67.71;99501.03;5415854;26;20438;-46
2024/04/14 00:30:03;;;;;;;9.63;5.38;;;;;;;17.26;67.86;99493.03;5417581;26;20079;-46
2024/04/14 00:32:29;;;;;;;10.98;4.55;;;;;;;17.23;67.82;99492.69;5417395;26;20004;-46
2024/04/14 00:34:55;;;;;;;12.20;7.32;;;;;;;17.18;67.69;99488.03;5417769;26;20000;-46
2024/04/14 00:37:20;;;;;;;9.48;4.25;;;;;;;17.20;67.73;99485.16;5417761;26;20004;-46
2024/04/14 00:39:46;;;;;;;10.48;7.05;;;;;;;17.25;67.60;99486.13;5417844;26;20015;-46
2024/04/14 00:42:12;;;;;;;10.30;8.98;;;;;;;17.25;67.71;99486.13;5417670;26;20008;-46
2024/04/14 00:44:37;;;;;;;15.88;11.73;;;;;;;17.36;67.63;99488.03;5417553;26;20454;-46
2024/04/14 00:47:03;;;;;;;10.25;6.57;;;;;;;17.42;66.75;99485.50;5415545;26;20080;-46
2024/04/14 00:49:30;;;;;;;10.18;5.55;;;;;;;17.23;67.47;99482.88;5415535;26;19999;-46
2024/04/14 00:51:59;;;;;;;14.20;6.40;;;;;;;17.06;68.19;99477.38;5417177;26;20003;-46
2024/04/14 00:54:25;;;;;;;16.77;11.95;;;;;;;16.98;68.62;99480.31;5417136;26;20004;-46
2024/04/14 00:56:52;;;;;;;10.75;6.22;;;;;;;16.92;68.57;99483.88;5415461;26;20015;-46
2024/04/14 00:59:18;;;;;;;12.70;8.68;;;;;;;16.74;70.20;99484.66;5414729;26;20439;-46
2024/04/14 01:01:44;;;;;;;10.98;6.30;;;;;;;16.84;72.68;99490.31;5415388;26;20003;-46
2024/04/14 01:04:09;;;;;;;12.13;9.30;;;;;;;16.84;70.97;99479.69;5417160;26;20399;-46
2024/04/14 01:06:36;;;;;;;10.88;7.35;;;;;;;16.70;70.37;99480.81;5417058;26;20010;-46
2024/04/14 01:09:03;;;;;;;12.43;5.32;;;;;;;16.44;70.30;99477.44;5415213;26;20014;-46
2024/04/14 01:11:29;;;;;;;10.02;5.15;;;;;;;16.32;71.02;99487.13;5416926;26;20010;-46
2024/04/14 01:13:55;;;;;;;10.05;6.78;;;;;;;16.35;72.39;99486.69;5416971;26;20004;-46
2024/04/14 01:16:20;;;;;;;7.80;5.15;;;;;;;16.52;73.49;99482.44;5415116;26;20036;-46
2024/04/14 01:18:46;;;;;;;8.40;4.55;;;;;;;16.57;72.44;99481.78;5416854;26;20010;-46
2024/04/14 01:21:12;;;;;;;10.25;5.18;;;;;;;16.60;71.50;99480.53;5416740;26;20066;-46
2024/04/14 01:23:38;;;;;;;21.15;18.23;;;;;;;16.60;71.39;99486.66;5416806;26;20048;-46
2024/04/14 01:26:04;;;;;;;9.45;5.22;;;;;;;16.70;70.61;99478.16;5416961;26;20526;-46
2024/04/14 01:28:30;;;;;;;9.95;8.55;;;;;;;16.74;70.36;99477.53;5416576;26;20014;-47
2024/04/14 01:30:56;;;;;;;13.63;5.13;;;;;;;16.83;70.42;99480.72;5416545;26;20003;-46
2024/04/14 01:33:21;;;;;;;39.35;35.58;;;;;;;16.85;69.46;99478.66;5385130;26;20183;-46
2024/04/14 01:35:47;;;;;;;12.60;11.02;;;;;;;16.73;69.43;99477.75;5416574;26;20003;-46
2024/04/14 01:38:13;;;;;;;26.33;23.73;;;;;;;16.57;69.54;99469.31;5417092;26;19999;-46
2024/04/14 01:40:39;;;;;;;15.13;11.98;;;;;;;16.44;70.16;99473.94;5416509;26;20000;-46
2024/04/14 01:43:05;;;;;;;11.40;5.75;;;;;;;16.25;70.49;99478.41;5385544;26;20003;-46
2024/04/14 01:45:31;;;;;;;10.02;6.53;;;;;;;16.28;71.20;99480.63;5414597;26;20003;-46
2024/04/14 01:47:56;;;;;;;12.85;5.75;;;;;;;16.31;71.62;99475.69;5416481;26;20010;-46
2024/04/14 01:50:22;;;;;;;12.90;7.60;;;;;;;16.20;70.72;99480.91;5416356;26;20419;-46
2024/04/14 01:52:48;;;;;;;14.00;6.18;;;;;;;16.01;71.38;99480.06;5416302;26;20521;-46
2024/04/14 01:55:13;;;;;;;29.50;26.45;;;;;;;15.87;72.49;99474.84;5416326;26;20003;-46
2024/04/14 01:57:39;;;;;;;39.53;35.83;;;;;;;15.88;72.62;99475.69;5416251;26;20004;-46
2024/04/14 02:00:08;;;;;;;21.55;17.63;;;;;;;15.87;72.85;99474.84;5416191;26;20864;-46
2024/04/14 02:02:34;;;;;;;15.38;14.00;;;;;;;15.81;72.57;99472.25;5416180;26;20010;-46
2024/04/14 02:05:00;;;;;;;13.30;8.73;;;;;;;15.76;73.04;99479.00;5414463;26;20014;-46
2024/04/14 02:07:25;;;;;;;11.90;7.30;;;;;;;15.69;73.35;99475.56;5416226;26;20004;-46
2024/04/14 02:09:53;;;;;;;16.58;12.27;;;;;;;15.73;73.65;99474.13;5414215;26;20404;-46
2024/04/14 02:12:19;;;;;;;11.90;8.15;;;;;;;15.81;73.25;99467.78;5418816;26;20039;-46
2024/04/14 02:14:44;;;;;;;324.40;253.82;;;;;;;15.79;72.84;99467.16;5419339;26;20014;-46
2024/04/14 02:17:10;;;;;;;112.00;98.40;;;;;;;15.88;73.23;99473.84;5417742;26;20003;-46
2024/04/14 02:19:36;;;;;;;29.70;26.77;;;;;;;15.97;72.95;99471.72;5417608;26;20077;-46
2024/04/14 02:22:02;;;;;;;13.85;11.88;;;;;;;15.99;72.12;99472.31;5419446;26;20032;-46
2024/04/14 02:24:32;;;;;;;16.40;10.02;;;;;;;15.94;72.13;99464.22;5388262;26;19999;-46
2024/04/14 02:26:58;;;;;;;16.30;10.48;;;;;;;15.97;72.25;99469.06;5419263;26;20004;-46
2024/04/14 02:29:24;;;;;;;13.95;7.90;;;;;;;16.01;72.07;99464.97;5417465;26;20010;-46
2024/04/14 02:31:49;;;;;;;9.63;5.25;;;;;;;16.05;71.58;99468.81;5418925;26;20008;-46
2024/04/14 02:34:15;;;;;;;45.13;41.28;;;;;;;15.95;71.27;99469.28;5417846;26;20043;-46
2024/04/14 02:36:41;;;;;;;20.80;18.67;;;;;;;15.94;71.81;99469.53;5419458;26;20091;-46
2024/04/14 02:39:07;;;;;;;25.08;20.95;;;;;;;15.96;71.56;99465.63;5388157;26;20004;-46
2024/04/14 02:41:32;;;;;;;11.57;8.40;;;;;;;15.86;71.39;99464.50;5419384;26;20007;-46
2024/04/14 02:43:58;;;;;;;13.90;7.63;;;;;;;15.77;71.34;99461.28;5419369;26;20010;-46
2024/04/14 02:46:24;;;;;;;16.73;15.05;;;;;;;15.66;71.70;99472.53;5417258;26;20007;-46
2024/04/14 02:48:50;;;;;;;26.13;20.25;;;;;;;15.65;72.32;99469.06;5417182;26;20077;-46
2024/04/14 02:51:16;;;;;;;26.80;22.55;;;;;;;15.71;72.16;99473.50;5418846;26;20000;-46
2024/04/14 02:53:41;;;;;;;11.00;8.63;;;;;;;15.67;71.86;99467.00;5418891;26;20003;-46
2024/04/14 02:56:07;;;;;;;10.93;7.63;;;;;;;15.58;72.01;99466.47;5417132;26;20004;-46
2024/04/14 02:58:33;;;;;;;15.95;7.30;;;;;;;15.58;72.47;99470.97;5417155;26;20011;-46
2024/04/14 03:01:00;;;;;;;25.40;10.32;;;;;;;15.54;72.95;99467.13;5417012;26;20003;-46
2024/04/14 03:03:26;;;;;;;12.45;9.57;;;;;;;15.50;72.71;99468.56;5418646;26;20362;-46
2024/04/14 03:05:59;;;;;;;9.52;8.43;;;;;;;15.45;73.24;99476.31;5418719;26;20010;-46
2024/04/14 03:08:25;;;;;;;11.77;8.48;;;;;;;15.46;73.02;99472.66;5416954;26;20004;-46
2024/04/14 03:10:54;;;;;;;16.45;14.70;;;;;;;15.44;73.29;99464.94;5416769;26;20076;-46
2024/04/14 03:13:20;;;;;;;17.95;14.95;;;;;;;15.53;73.25;99462.84;5416930;26;20000;-46
2024/04/14 03:15:45;;;;;;;18.95;14.90;;;;;;;15.68;73.45;99462.56;5416785;26;20000;-46
2024/04/14 03:18:11;;;;;;;7.20;4.90;;;;;;;15.74;72.39;99459.88;5416917;26;20004;-46
2024/04/14 03:20:37;;;;;;;19.20;17.30;;;;;;;15.71;72.12;99470.06;5416719;26;20004;-46
2024/04/14 03:23:03;;;;;;;12.65;11.20;;;;;;;15.66;72.35;99457.47;5418326;26;20007;-46
2024/04/14 03:25:28;;;;;;;11.40;6.05;;;;;;;15.65;71.92;99461.13;5418508;26;19999;-46
2024/04/14 03:27:54;;;;;;;7.22;4.90;;;;;;;15.61;71.90;99449.34;5418406;26;20462;-46
2024/04/14 03:30:20;;;;;;;16.15;12.68;;;;;;;15.47;71.88;99453.91;5386970;26;20003;-46
2024/04/14 03:32:45;;;;;;;9.77;6.35;;;;;;;15.27;72.53;99453.22;5418052;26;19999;-46
2024/04/14 03:35:11;;;;;;;16.65;10.15;;;;;;;15.15;72.93;99453.91;5416583;26;20044;-46
2024/04/14 03:37:37;;;;;;;10.77;6.32;;;;;;;15.07;73.09;99450.69;5416570;26;20014;-46
2024/04/14 03:40:04;;;;;;;18.70;11.07;;;;;;;15.07;73.52;99450.69;5418247;26;20004;-46
2024/04/14 03:42:32;;;;;;;9.75;6.32;;;;;;;15.09;73.73;99448.63;5416409;26;20004;-46
2024/04/14 03:44:58;;;;;;;8.75;6.68;;;;;;;15.02;73.99;99448.69;5418232;26;20505;-46
2024/04/14 03:47:23;;;;;;;15.02;13.43;;;;;;;15.02;74.03;99439.94;5416448;26;19999;-46
2024/04/14 03:49:49;;;;;;;15.35;12.88;;;;;;;15.02;74.08;99440.75;5416354;26;20022;-46
2024/04/14 03:52:15;;;;;;;13.40;7.82;;;;;;;15.00;73.73;99444.63;5416329;26;19999;-46
2024/04/14 03:54:40;;;;;;;12.95;6.45;;;;;;;14.96;74.04;99434.47;5418237;26;20011;-46
2024/04/14 03:57:06;;;;;;;13.70;6.07;;;;;;;14.92;74.27;99440.38;5416366;26;20430;-46
2024/04/14 03:59:32;;;;;;;9.13;4.57;;;;;;;14.93;74.87;99434.06;5416177;26;20484;-46
2024/04/14 04:01:57;;;;;;;8.77;4.32;;;;;;;14.93;74.50;99432.25;5386660;26;20004;-46
2024/04/14 04:04:23;;;;;;;9.40;5.28;;;;;;;15.04;74.31;99427.31;5416121;26;20018;-46
2024/04/14 04:06:49;;;;;;;9.40;4.00;;;;;;;15.07;73.77;99429.53;5418018;26;19999;-46
2024/04/14 04:09:14;;;;;;;10.95;6.53;;;;;;;15.02;73.35;99430.19;5418060;26;20007;-46
2024/04/14 04:11:40;;;;;;;13.48;5.80;;;;;;;14.92;74.11;99432.47;5386343;26;20003;-46
2024/04/14 04:14:10;;;;;;;10.27;6.00;;;;;;;14.89;73.88;99431.06;5416124;26;20000;-46
2024/04/14 04:16:41;;;;;;;13.75;10.05;;;;;;;14.74;74.31;99427.84;5417212;26;20469;-46
2024/04/14 04:19:06;;;;;;;12.55;9.13;;;;;;;14.68;74.45;99433.97;5416022;26;20373;-46
2024/04/14 04:21:32;;;;;;;14.73;11.25;;;;;;;14.66;74.92;99430.72;5417633;26;20011;-46
2024/04/14 04:23:57;;;;;;;11.65;4.70;;;;;;;14.64;74.68;99436.22;5417767;26;20350;-46
2024/04/14 04:26:23;;;;;;;13.27;9.43;;;;;;;14.78;75.33;99434.34;5415907;26;20360;-46
2024/04/14 04:28:49;;;;;;;7.47;4.70;;;;;;;14.77;74.65;99433.53;5417595;26;20358;-46
2024/04/14 04:31:14;;;;;;;16.10;14.52;;;;;;;14.78;74.81;99440.44;5417590;26;20446;-46
2024/04/14 04:33:41;;;;;;;14.15;6.68;;;;;;;14.89;74.99;99446.06;5416572;26;20053;-46
2024/04/14 04:36:07;;;;;;;11.48;4.88;;;;;;;14.93;73.95;99445.47;5386683;26;20076;-46
2024/04/14 04:38:33;;;;;;;9.30;6.18;;;;;;;14.99;73.83;99449.13;5417755;26;20323;-46
2024/04/14 04:40:58;;;;;;;7.90;4.30;;;;;;;14.92;73.54;99451.75;5417883;26;20004;-46
2024/04/14 04:43:24;;;;;;;9.52;4.85;;;;;;;14.80;73.70;99444.72;5416034;26;20000;-46
2024/04/14 04:45:51;;;;;;;9.30;5.60;;;;;;;14.82;74.17;99447.94;5417957;26;20027;-46
2024/04/14 04:48:17;;;;;;;239.15;217.18;;;;;;;14.91;73.46;99436.94;5417538;26;19999;-46
2024/04/14 04:50:46;;;;;;;28.55;19.42;;;;;;;14.92;73.09;99441.19;5417307;26;20015;-46
2024/04/14 04:53:14;;;;;;;9.95;5.65;;;;;;;14.89;73.19;99446.06;5417430;26;20032;-46
2024/04/14 04:55:39;;;;;;;11.50;8.38;;;;;;;14.80;73.26;99440.22;5417176;26;20014;-46
2024/04/14 04:58:05;;;;;;;21.83;14.00;;;;;;;14.73;73.85;99442.91;5417191;26;20003;-46
2024/04/14 05:00:31;;;;;;;14.75;12.90;;;;;;;14.78;73.29;99444.91;5415414;26;20358;-46
2024/04/14 05:02:56;;;;;;;15.95;6.50;;;;;;;14.93;73.26;99442.00;5417094;26;20013;-46
2024/04/14 05:05:22;;;;;;;11.40;6.75;;;;;;;15.07;72.86;99448.03;5415346;26;20040;-46
2024/04/14 05:07:48;;;;;;;9.60;5.30;;;;;;;15.29;72.68;99446.72;5417362;26;20094;-46
2024/04/14 05:10:13;;;;;;;8.77;4.28;;;;;;;15.42;71.18;99439.72;5415219;26;20101;-46
2024/04/14 05:12:39;;;;;;;7.13;3.38;;;;;;;15.45;70.58;99439.28;5415268;26;20333;-46
2024/04/14 05:15:06;;;;;;;9.07;3.58;;;;;;;15.51;70.80;99433.97;5415191;26;20648;-46
2024/04/14 05:17:32;;;;;;;13.10;7.22;;;;;;;16.08;69.21;99438.44;5416880;26;19999;-46
2024/04/14 05:19:58;;;;;;;14.57;9.30;;;;;;;16.69;66.94;99436.81;5416963;26;20345;-46
2024/04/14 05:22:24;;;;;;;16.10;13.02;;;;;;;17.15;63.96;99433.59;5416704;26;20003;-46
2024/04/14 05:24:49;;;;;;;10.73;4.90;;;;;;;17.33;62.87;99445.22;5385744;26;20007;-46
2024/04/14 05:27:16;;;;;;;15.93;5.28;;;;;;;17.52;61.71;99433.47;5416802;26;20442;-46
2024/04/14 05:29:45;;;;;;;12.25;6.18;;;;;;;17.89;60.57;99437.88;5414864;26;20530;-46
2024/04/14 05:32:12;;;;;;;9.43;7.70;;;;;;;18.36;58.72;99440.50;5414608;26;20000;-46
2024/04/14 05:34:38;;;;;;;10.35;4.32;;;;;;;18.81;57.10;99442.53;5417012;26;20039;-46
2024/04/14 05:37:03;;;;;;;8.88;3.85;;;;;;;19.16;55.33;99437.09;5416942;26;20334;-46
2024/04/14 05:39:31;;;;;;;12.60;3.97;;;;;;;19.41;54.23;99437.81;5415049;26;20003;-46
2024/04/14 05:41:57;;;;;;;9.27;3.75;;;;;;;19.56;53.06;99446.84;5415035;26;20003;-46
2024/04/14 05:44:23;;;;;;;6.18;3.67;;;;;;;19.71;52.61;99443.66;5416753;26;20076;-46
2024/04/14 05:46:49;;;;;;;11.57;8.20;;;;;;;20.16;51.36;99441.94;5416857;26;20031;-46
2024/04/14 05:49:14;;;;;;;12.18;10.57;;;;;;;20.44;50.51;99443.66;5416374;26;20003;-47
2024/04/14 05:51:40;;;;;;;8.48;6.22;;;;;;;20.47;49.96;99435.19;5414407;26;19996;-46
2024/04/14 05:54:05;;;;;;;8.73;5.32;;;;;;;20.58;49.92;99441.44;5414601;26;20010;-46
2024/04/14 05:56:31;;;;;;;12.98;9.05;;;;;;;20.60;49.19;99446.56;5416246;26;20003;-46
2024/04/14 05:58:57;;;;;;;14.90;7.30;;;;;;;20.35;49.78;99440.63;5416447;26;20011;-46
2024/04/14 06:01:22;;;;;;;10.13;5.50;;;;;;;20.21;50.30;99438.56;5416212;26;20010;-47
2024/04/14 06:03:48;;;;;;;12.80;7.60;;;;;;;20.26;50.45;99442.13;5414517;26;20011;-47
2024/04/14 06:06:14;;;;;;;12.77;4.18;;;;;;;20.61;49.82;99441.00;5414472;26;20011;-47
2024/04/14 06:08:39;;;;;;;10.65;5.32;;;;;;;20.81;49.03;99443.13;5414234;26;20000;-46
2024/04/14 06:11:05;;;;;;;13.85;6.20;;;;;;;21.45;47.15;99438.97;5415930;26;20003;-47
2024/04/14 06:13:32;;;;;;;11.73;7.85;;;;;;;21.76;45.65;99436.59;5414201;26;20460;-47
2024/04/14 06:15:58;;;;;;;11.93;5.47;;;;;;;22.04;45.05;99440.81;5416072;26;19999;-47
2024/04/14 06:18:24;;;;;;;9.88;4.75;;;;;;;22.61;44.39;99440.06;5415857;26;20003;-47
2024/04/14 06:20:49;;;;;;;18.33;12.35;;;;;;;23.32;43.42;99439.53;5415912;26;20020;-47
2024/04/14 06:23:15;;;;;;;6.07;3.95;;;;;;;23.44;41.51;99441.94;5415920;26;20456;-46
2024/04/14 06:25:41;;;;;;;10.52;3.53;;;;;;;23.40;41.16;99442.72;5415652;26;20086;-47
2024/04/14 06:28:07;;;;;;;9.18;4.25;;;;;;;23.37;41.33;99440.59;5415888;26;20366;-47
2024/04/14 06:30:33;;;;;;;9.50;4.05;;;;;;;23.52;41.10;99440.59;5413751;26;20011;-47
2024/04/14 06:32:59;;;;;;;11.30;3.22;;;;;;;23.70;40.89;99439.25;5415388;26;20346;-47
2024/04/14 06:35:25;;;;;;;12.18;4.30;;;;;;;23.98;40.65;99437.94;5415552;26;20003;-47
2024/04/14 06:37:51;;;;;;;4.55;3.70;;;;;;;24.47;40.43;99439.97;5415655;26;20018;-47
2024/04/14 06:40:16;;;;;;;8.70;4.35;;;;;;;25.38;39.07;99442.53;5415590;26;20004;-47
2024/04/14 06:42:42;;;;;;;9.95;4.18;;;;;;;25.76;37.58;99439.28;5415547;26;20014;-44
2024/04/14 06:45:08;;;;;;;10.48;4.35;;;;;;;25.85;37.18;99441.06;5413657;26;20562;-44
2024/04/14 06:47:34;;;;;;;7.07;4.03;;;;;;;25.84;38.09;99446.75;5415344;26;20014;-47
2024/04/14 06:49:59;;;;;;;8.70;4.40;;;;;;;26.43;38.09;99437.56;5415408;26;20007;-47
2024/04/14 06:52:25;;;;;;;9.70;3.78;;;;;;;27.41;36.51;99433.63;5384031;26;20011;-47
2024/04/14 06:54:51;;;;;;;6.13;3.38;;;;;;;27.82;35.38;99430.25;5415322;26;20000;-47
2024/04/14 06:57:17;;;;;;;11.02;4.22;;;;;;;28.34;33.87;99433.63;5416572;26;20014;-44
2024/04/14 06:59:42;;;;;;;12.38;3.70;;;;;;;28.51;33.54;99424.94;5417065;26;20088;-45
2024/04/14 07:02:08;;;;;;;7.70;3.80;;;;;;;29.34;32.92;99422.09;5416955;26;20015;-45
2024/04/14 07:04:34;;;;;;;10.88;3.70;;;;;;;30.10;30.66;99413.13;5418911;26;20076;-44
2024/04/14 07:07:00;;;;;;;6.65;3.60;;;;;;;30.75;30.38;99402.69;5417065;26;20014;-44
2024/04/14 07:09:26;;;;;;;17.02;5.00;;;;;;;31.49;29.05;99403.66;5418688;26;20011;-45
2024/04/14 07:11:55;;;;;;;8.98;4.53;;;;;;;31.99;29.06;99406.53;5418624;26;19999;-45
2024/04/14 07:14:21;;;;;;;6.65;3.97;;;;;;;32.61;28.08;99393.50;5418624;26;20464;-45
2024/04/14 07:16:47;;;;;;;7.63;3.75;;;;;;;33.55;27.43;99395.75;5418659;26;20011;-45
2024/04/14 07:19:12;;;;;;;7.50;3.05;;;;;;;34.51;26.04;99393.78;5418540;26;20014;-45
2024/04/14 07:21:41;;;;;;;16.30;10.82;;;;;;;34.75;25.42;99382.88;5418523;26;20003;-45
2024/04/14 07:24:07;;;;;;;13.13;7.47;;;;;;;34.60;25.66;99389.78;5418702;26;20003;-45
2024/04/14 07:26:33;;;;;;;22.08;18.10;;;;;;;34.96;25.20;99388.13;5418346;26;20442;-45
2024/04/14 07:28:58;;;;;;;13.82;10.77;;;;;;;35.51;24.34;99387.66;5418483;26;20000;-45
2024/04/14 07:31:24;;;;;;;12.57;4.72;;;;;;;35.78;23.87;99378.66;5416495;26;20084;-45
2024/04/14 07:33:58;;;;;;;10.40;4.90;;;;;;;35.74;23.98;99377.78;5416404;26;20035;-45
2024/04/14 07:36:23;;;;;;;9.07;4.15;;;;;;;35.82;23.74;99376.00;5418303;26;20069;-45
2024/04/14 07:38:49;;;;;;;9.05;4.85;;;;;;;36.13;23.21;99377.91;5387053;26;20003;-45
2024/04/14 07:41:15;;;;;;;5.93;3.47;;;;;;;36.15;23.59;99378.38;5416511;26;20003;-45
2024/04/14 07:43:40;;;;;;;10.50;3.17;;;;;;;36.21;23.50;99372.66;5418479;26;20018;-45
2024/04/14 07:46:06;;;;;;;12.43;3.45;;;;;;;36.42;23.57;99377.78;5418113;26;20015;-45
2024/04/14 07:48:32;;;;;;;5.47;2.78;;;;;;;36.78;23.30;99373.88;5418183;26;20003;-45
2024/04/14 07:50:57;;;;;;;9.55;3.70;;;;;;;37.47;22.52;99376.81;5418049;26;20093;-45
2024/04/14 07:53:23;;;;;;;6.95;3.58;;;;;;;38.10;22.75;99374.75;5418306;26;20003;-45
2024/04/14 07:55:49;;;;;;;6.57;2.88;;;;;;;38.71;21.54;99370.09;5417974;26;20003;-48
2024/04/14 07:58:15;;;;;;;9.15;2.95;;;;;;;39.19;20.12;99372.22;5416312;26;20076;-48
2024/04/14 08:00:41;;;;;;;8.15;2.63;;;;;;;39.44;20.39;99369.75;5417975;26;20017;-48
2024/04/14 08:03:07;;;;;;;6.80;2.78;;;;;;;39.87;20.38;99373.69;5418008;26;19999;-48
2024/04/14 08:05:32;;;;;;;9.02;2.67;;;;;;;40.02;19.40;99362.78;5417911;26;20003;-48
2024/04/14 08:07:58;;;;;;;6.90;3.05;;;;;;;40.31;19.49;99363.78;5417239;26;20354;-48
2024/04/14 08:10:24;;;;;;;8.38;2.80;;;;;;;39.90;19.95;99363.88;5417088;26;20350;-48
2024/04/14 08:12:49;;;;;;;7.47;3.25;;;;;;;39.55;20.92;99368.69;5417803;26;20014;-48
2024/04/14 08:15:15;;;;;;;7.82;2.63;;;;;;;39.65;20.97;99366.41;5417677;26;20396;-48
2024/04/14 08:17:41;;;;;;;5.65;2.92;;;;;;;39.93;20.34;99366.66;5417657;26;20113;-48
2024/04/14 08:20:07;;;;;;;6.22;2.80;;;;;;;40.23;20.05;99365.66;5417639;26;20438;-48
2024/04/14 08:22:33;;;;;;;8.23;3.28;;;;;;;40.56;19.69;99366.63;5415920;26;20334;-48
2024/04/14 08:24:58;;;;;;;7.07;2.78;;;;;;;40.62;19.60;99365.09;5417778;26;20031;-48
2024/04/14 08:27:24;;;;;;;6.63;3.13;;;;;;;40.20;20.20;99360.91;5417649;26;20522;-48
2024/04/14 08:29:50;;;;;;;9.05;2.65;;;;;;;39.93;19.79;99365.88;5415926;26;20010;-48
2024/04/14 08:32:15;;;;;;;11.18;2.80;;;;;;;39.62;20.89;99356.16;5417382;26;20454;-48
2024/04/14 08:34:41;;;;;;;7.22;3.10;;;;;;;39.30;20.36;99357.44;5417554;26;19999;-48
2024/04/14 08:37:07;;;;;;;5.80;3.00;;;;;;;39.38;21.22;99357.50;5415739;26;20345;-48
2024/04/14 08:39:32;;;;;;;8.10;3.17;;;;;;;39.09;20.76;99351.72;5417471;26;20003;-48
2024/04/14 08:42:00;;;;;;;6.35;2.70;;;;;;;39.26;21.00;99350.31;5417379;26;19999;-48
2024/04/14 08:44:26;;;;;;;5.22;2.65;;;;;;;39.45;21.30;99347.41;5417340;26;20000;-48
2024/04/14 08:46:52;;;;;;;9.00;3.15;;;;;;;39.77;20.23;99346.88;5417418;26;20098;-49
2024/04/14 08:49:22;;;;;;;8.25;2.75;;;;;;;39.77;20.06;99349.63;5415738;26;20014;-48
2024/04/14 08:51:50;;;;;;;7.15;2.90;;;;;;;39.66;20.32;99346.81;5417473;26;20004;-48
2024/04/14 08:54:16;;;;;;;5.93;2.55;;;;;;;39.75;19.80;99344.50;5417229;26;20457;-48
2024/04/14 08:56:42;;;;;;;8.25;2.83;;;;;;;40.02;20.24;99343.53;5415573;26;20341;-48
2024/04/14 08:59:09;;;;;;;9.63;2.33;;;;;;;40.32;19.94;99344.13;5417242;26;20076;-49
2024/04/14 09:01:36;;;;;;;5.95;2.60;;;;;;;40.45;19.94;99338.31;5415470;26;20345;-48
2024/04/14 09:04:05;;;;;;;6.97;2.90;;;;;;;40.83;20.24;99342.41;5386064;26;20004;-48
2024/04/14 09:06:32;;;;;;;7.30;3.00;;;;;;;41.39;19.37;99342.88;5415471;26;20019;-48
2024/04/14 09:08:59;;;;;;;7.50;2.70;;;;;;;42.10;18.50;99341.31;5415423;26;20450;-48
2024/04/14 09:11:25;;;;;;;7.82;3.92;;;;;;;42.27;18.35;99340.47;5416918;26;20011;-48
2024/04/14 09:13:51;;;;;;;8.52;2.53;;;;;;;42.39;18.01;99338.47;5417031;26;20499;-48
2024/04/14 09:16:19;;;;;;;7.00;2.75;;;;;;;42.82;18.34;99335.53;5416968;26;20338;-48
2024/04/14 09:18:45;;;;;;;5.65;3.00;;;;;;;43.19;17.40;99328.63;5417082;26;20000;-48
2024/04/14 09:21:10;;;;;;;9.48;3.05;;;;;;;43.42;16.92;99326.06;5414658;26;20004;-48
2024/04/14 09:23:36;;;;;;;9.18;3.17;;;;;;;43.56;18.09;99322.41;5416907;26;20004;-49
2024/04/14 09:26:04;;;;;;;9.80;2.75;;;;;;;43.63;17.77;99327.09;5416935;26;20015;-48
2024/04/14 09:28:30;;;;;;;9.63;2.88;;;;;;;43.61;16.82;99321.97;5417172;26;19999;-49
2024/04/14 09:30:55;;;;;;;6.72;2.63;;;;;;;43.94;16.25;99321.69;5414849;26;20076;-49
2024/04/14 09:33:21;;;;;;;8.43;2.90;;;;;;;43.75;17.70;99323.84;5416966;26;20077;-49
2024/04/14 09:35:50;;;;;;;7.03;2.95;;;;;;;43.56;17.29;99316.09;5417267;26;20000;-48
2024/04/14 09:38:17;;;;;;;6.10;2.85;;;;;;;43.54;17.36;99310.97;5417370;26;20069;-49
2024/04/14 09:40:44;;;;;;;6.68;2.42;;;;;;;43.50;17.76;99312.97;5415222;26;19996;-48
2024/04/14 09:43:11;;;;;;;8.93;3.00;;;;;;;43.49;17.23;99303.13;5416978;26;20011;-49
2024/04/14 09:45:37;;;;;;;6.88;3.45;;;;;;;44.17;17.84;99301.69;5415131;26;20435;-48
2024/04/14 09:48:04;;;;;;;8.25;2.70;;;;;;;44.48;16.79;99299.75;5385392;26;20014;-48
2024/04/14 09:50:34;;;;;;;8.70;3.50;;;;;;;44.73;17.27;99301.38;5416714;26;20076;-49
2024/04/14 09:53:03;;;;;;;6.35;2.90;;;;;;;45.20;15.95;99295.94;5416552;26;20011;-50
2024/04/14 09:55:29;;;;;;;7.78;2.75;;;;;;;45.50;16.30;99302.56;5416275;26;20027;-48
2024/04/14 09:57:55;;;;;;;7.65;3.25;;;;;;;45.42;15.42;99299.13;5414661;26;20004;-49
2024/04/14 10:00:21;;;;;;;9.43;2.88;;;;;;;45.54;16.39;99297.75;5416267;26;20035;-49
2024/04/14 10:02:53;;;;;;;6.38;3.78;;;;;;;45.50;15.75;99289.53;5416277;26;20315;-48
2024/04/14 10:05:22;;;;;;;10.38;3.38;;;;;;;45.41;15.86;99298.38;5416198;26;20011;-48
2024/04/14 10:07:48;;;;;;;9.15;3.10;;;;;;;45.52;15.43;99292.66;5416254;26;20011;-49
2024/04/14 10:10:15;;;;;;;7.47;2.40;;;;;;;46.06;14.30;99302.75;5416120;26;20011;-49
2024/04/14 10:12:40;;;;;;;7.70;2.75;;;;;;;46.56;14.82;99293.41;5416121;26;20031;-48
2024/04/14 10:15:07;;;;;;;7.95;2.90;;;;;;;46.34;14.08;99298.63;5414292;26;20073;-48
2024/04/14 10:17:33;;;;;;;8.75;2.65;;;;;;;45.63;14.94;99289.66;5415980;26;20418;-48
2024/04/14 10:20:17;;;;;;;16.08;3.65;;;;;;;45.48;15.54;99283.63;5414213;26;20353;-48
2024/04/14 10:22:45;;;;;;;10.02;3.42;;;;;;;45.89;14.97;99284.47;5416046;26;20331;-48
2024/04/14 10:25:25;;;;;;;12.55;3.13;;;;;;;46.16;14.43;99287.88;5415796;26;20007;-48
2024/04/14 10:27:51;;;;;;;6.50;2.47;;;;;;;46.32;14.16;99278.06;5415972;26;20015;-48
2024/04/14 10:30:22;;;;;;;4.00;2.15;;;;;;;46.22;14.11;99279.84;5415633;26;20007;-49
2024/04/14 10:32:48;;;;;;;11.13;2.60;;;;;;;46.15;13.38;99283.56;5415798;26;20066;-48
2024/04/14 10:35:16;;;;;;;9.95;2.70;;;;;;;45.52;13.48;99277.97;5419188;26;20470;-49
2024/04/14 10:38:02;;;;;;;9.00;2.60;;;;;;;45.06;14.21;99275.56;5419296;26;20014;-49
2024/04/14 10:40:29;;;;;;;6.95;2.55;;;;;;;45.24;14.35;99271.72;5419032;26;19995;-49
2024/04/14 10:42:54;;;;;;;12.85;2.85;;;;;;;45.50;14.09;99274.84;5417434;26;20064;-49
2024/04/14 10:45:29;;;;;;;9.00;2.22;;;;;;;45.72;13.90;99267.75;5419052;26;19999;-48
2024/04/14 10:47:58;;;;;;;7.78;2.55;;;;;;;45.51;13.18;99266.13;5418991;26;20011;-49
2024/04/14 10:50:27;;;;;;;5.93;2.78;;;;;;;45.42;14.01;99263.91;5419009;26;20015;-49
2024/04/14 10:52:53;;;;;;;7.70;2.83;;;;;;;45.37;14.46;99253.28;5418991;26;20003;-48
2024/04/14 10:55:19;;;;;;;16.48;2.67;;;;;;;45.27;14.53;99259.81;5419014;26;20004;-48
2024/04/14 10:57:44;;;;;;;8.93;2.38;;;;;;;45.51;14.27;99260.56;5418944;26;20331;-49
2024/04/14 11:00:11;;;;;;;8.05;2.60;;;;;;;45.60;13.80;99251.69;5418805;26;20018;-48
2024/04/14 11:02:37;;;;;;;6.95;2.35;;;;;;;45.29;13.71;99249.09;5418763;26;19999;-48
2024/04/14 11:05:04;;;;;;;9.77;2.95;;;;;;;44.79;13.41;99238.78;5418676;26;19999;-49
2024/04/14 11:07:30;;;;;;;8.20;2.47;;;;;;;44.58;14.30;99235.13;5417010;26;20000;-48
2024/04/14 11:09:56;;;;;;;7.13;2.47;;;;;;;44.25;14.71;99232.00;5418740;26;20010;-48
2024/04/14 11:12:22;;;;;;;8.23;2.92;;;;;;;44.08;14.19;99230.25;5418829;26;20014;-48
2024/04/14 11:14:48;;;;;;;11.60;3.35;;;;;;;44.35;13.71;99226.72;5418709;26;20450;-48
2024/04/14 11:17:14;;;;;;;9.90;2.65;;;;;;;44.54;14.23;99219.78;5418630;26;20018;-48
2024/04/14 11:19:39;;;;;;;6.72;3.03;;;;;;;44.48;13.13;99222.22;5418637;26;20007;-48
2024/04/14 11:22:05;;;;;;;7.00;2.15;;;;;;;44.67;13.26;99216.00;5416785;26;20082;-48